sensor_id;sensor_type;location;lat;lon;timestamp;P1;durP1;ratioP1;P2;durP2;ratioP2
11488;SDS011;5801;50.804;12.638;2023-03-21T00:01:20;2.45;;;2.25;;
11488;SDS011;5801;50.804;12.638;2023-03-21T00:03:46;3.92;;;2.55;;
11488;SDS011;5801;50.804;12.638;2023-03-21T00:06:13;6.95;;;2.00;;
11488;SDS011;5801;50.804;12.638;2023-03-21T00:08:39;3.67;;;2.17;;
11488;SDS011;5801;50.804;12.638;2023-03-21T00:11:06;5.13;;;2.33;;
11488;SDS011;5801;50.804;12.638;2023-03-21T00:13:34;3.13;;;2.03;;
11488;SDS011;5801;50.804;12.638;2023-03-21T00:16:05;5.00;;;2.60;;
11488;SDS011;5801;50.804;12.638;2023-03-21T00:18:42;4.40;;;2.15;;
11488;SDS011;5801;50.804;12.638;2023-03-21T00:21:11;3.95;;;2.30;;
11488;SDS011;5801;50.804;12.638;2023-03-21T00:23:41;4.93;;;2.28;;
11488;SDS011;5801;50.804;12.638;2023-03-21T00:26:07;2.97;;;1.70;;
11488;SDS011;5801;50.804;12.638;2023-03-21T00:28:34;3.13;;;1.70;;
11488;SDS011;5801;50.804;12.638;2023-03-21T00:31:00;3.10;;;1.98;;
11488;SDS011;5801;50.804;12.638;2023-03-21T00:33:26;3.83;;;2.35;;
11488;SDS011;5801;50.804;12.638;2023-03-21T00:35:52;2.40;;;1.92;;
11488;SDS011;5801;50.804;12.638;2023-03-21T00:38:18;3.58;;;2.10;;
11488;SDS011;5801;50.804;12.638;2023-03-21T00:40:45;2.63;;;1.92;;
11488;SDS011;5801;50.804;12.638;2023-03-21T00:43:11;3.17;;;2.10;;
11488;SDS011;5801;50.804;12.638;2023-03-21T00:45:38;3.78;;;2.22;;
11488;SDS011;5801;50.804;12.638;2023-03-21T00:48:04;5.32;;;2.70;;
11488;SDS011;5801;50.804;12.638;2023-03-21T00:50:30;4.15;;;2.72;;
11488;SDS011;5801;50.804;12.638;2023-03-21T00:52:56;2.13;;;1.92;;
11488;SDS011;5801;50.804;12.638;2023-03-21T00:55:22;3.10;;;2.33;;
11488;SDS011;5801;50.804;12.638;2023-03-21T00:57:48;5.97;;;2.25;;
11488;SDS011;5801;50.804;12.638;2023-03-21T01:00:14;3.35;;;2.10;;
11488;SDS011;5801;50.804;12.638;2023-03-21T01:02:42;2.58;;;2.10;;
11488;SDS011;5801;50.804;12.638;2023-03-21T01:05:25;2.83;;;1.95;;
11488;SDS011;5801;50.804;12.638;2023-03-21T01:08:11;3.08;;;2.13;;
11488;SDS011;5801;50.804;12.638;2023-03-21T01:10:38;3.80;;;1.90;;
11488;SDS011;5801;50.804;12.638;2023-03-21T01:13:04;2.45;;;1.60;;
11488;SDS011;5801;50.804;12.638;2023-03-21T01:15:30;2.42;;;1.88;;
11488;SDS011;5801;50.804;12.638;2023-03-21T01:17:56;2.95;;;2.00;;
11488;SDS011;5801;50.804;12.638;2023-03-21T01:20:22;2.42;;;1.80;;
11488;SDS011;5801;50.804;12.638;2023-03-21T01:22:47;3.05;;;2.00;;
11488;SDS011;5801;50.804;12.638;2023-03-21T01:25:13;5.07;;;1.77;;
11488;SDS011;5801;50.804;12.638;2023-03-21T01:27:39;3.95;;;1.80;;
11488;SDS011;5801;50.804;12.638;2023-03-21T01:30:05;4.47;;;2.05;;
11488;SDS011;5801;50.804;12.638;2023-03-21T01:32:31;3.00;;;2.20;;
11488;SDS011;5801;50.804;12.638;2023-03-21T01:34:57;2.33;;;2.13;;
11488;SDS011;5801;50.804;12.638;2023-03-21T01:37:23;1.73;;;1.60;;
11488;SDS011;5801;50.804;12.638;2023-03-21T01:39:50;1.50;;;1.40;;
11488;SDS011;5801;50.804;12.638;2023-03-21T01:42:16;6.53;;;1.92;;
11488;SDS011;5801;50.804;12.638;2023-03-21T01:47:16;3.13;;;2.05;;
11488;SDS011;5801;50.804;12.638;2023-03-21T01:49:43;4.60;;;1.80;;
11488;SDS011;5801;50.804;12.638;2023-03-21T01:52:12;3.63;;;2.10;;
11488;SDS011;5801;50.804;12.638;2023-03-21T01:54:42;3.25;;;2.00;;
11488;SDS011;5801;50.804;12.638;2023-03-21T01:57:16;4.82;;;2.00;;
11488;SDS011;5801;50.804;12.638;2023-03-21T01:59:47;1.77;;;1.65;;
11488;SDS011;5801;50.804;12.638;2023-03-21T02:02:25;4.50;;;1.85;;
11488;SDS011;5801;50.804;12.638;2023-03-21T02:04:53;3.15;;;1.80;;
11488;SDS011;5801;50.804;12.638;2023-03-21T02:07:32;3.22;;;2.00;;
11488;SDS011;5801;50.804;12.638;2023-03-21T02:10:00;5.07;;;2.00;;
11488;SDS011;5801;50.804;12.638;2023-03-21T02:12:29;3.10;;;2.22;;
11488;SDS011;5801;50.804;12.638;2023-03-21T02:14:55;1.85;;;1.73;;
11488;SDS011;5801;50.804;12.638;2023-03-21T02:22:44;2.45;;;1.52;;
11488;SDS011;5801;50.804;12.638;2023-03-21T02:28:38;7.47;;;2.17;;
11488;SDS011;5801;50.804;12.638;2023-03-21T02:37:25;3.35;;;2.20;;
11488;SDS011;5801;50.804;12.638;2023-03-21T02:42:42;4.93;;;2.00;;
11488;SDS011;5801;50.804;12.638;2023-03-21T02:45:25;5.55;;;2.00;;
11488;SDS011;5801;50.804;12.638;2023-03-21T02:48:00;4.13;;;2.25;;
11488;SDS011;5801;50.804;12.638;2023-03-21T02:50:42;2.10;;;1.85;;
11488;SDS011;5801;50.804;12.638;2023-03-21T02:53:16;6.75;;;2.50;;
11488;SDS011;5801;50.804;12.638;2023-03-21T02:55:45;4.10;;;2.17;;
11488;SDS011;5801;50.804;12.638;2023-03-21T02:58:12;8.25;;;1.75;;
11488;SDS011;5801;50.804;12.638;2023-03-21T03:00:41;3.63;;;1.73;;
11488;SDS011;5801;50.804;12.638;2023-03-21T03:03:08;2.60;;;1.75;;
11488;SDS011;5801;50.804;12.638;2023-03-21T03:05:51;2.88;;;1.80;;
11488;SDS011;5801;50.804;12.638;2023-03-21T03:08:32;5.15;;;1.73;;
11488;SDS011;5801;50.804;12.638;2023-03-21T03:11:06;4.80;;;2.00;;
11488;SDS011;5801;50.804;12.638;2023-03-21T03:17:02;3.10;;;2.20;;
11488;SDS011;5801;50.804;12.638;2023-03-21T03:19:31;3.92;;;1.98;;
11488;SDS011;5801;50.804;12.638;2023-03-21T03:22:09;4.22;;;2.08;;
11488;SDS011;5801;50.804;12.638;2023-03-21T03:25:02;7.88;;;2.42;;
11488;SDS011;5801;50.804;12.638;2023-03-21T03:27:32;2.35;;;1.83;;
11488;SDS011;5801;50.804;12.638;2023-03-21T03:30:01;2.88;;;1.95;;
11488;SDS011;5801;50.804;12.638;2023-03-21T03:32:38;2.97;;;1.98;;
11488;SDS011;5801;50.804;12.638;2023-03-21T03:35:13;2.72;;;2.13;;
11488;SDS011;5801;50.804;12.638;2023-03-21T03:37:41;4.63;;;2.30;;
11488;SDS011;5801;50.804;12.638;2023-03-21T03:40:15;6.90;;;2.15;;
11488;SDS011;5801;50.804;12.638;2023-03-21T03:42:53;16.90;;;2.70;;
11488;SDS011;5801;50.804;12.638;2023-03-21T03:45:24;6.22;;;2.03;;
11488;SDS011;5801;50.804;12.638;2023-03-21T03:48:37;4.00;;;2.45;;
11488;SDS011;5801;50.804;12.638;2023-03-21T03:51:03;8.23;;;2.60;;
11488;SDS011;5801;50.804;12.638;2023-03-21T03:53:34;7.90;;;2.85;;
11488;SDS011;5801;50.804;12.638;2023-03-21T03:56:04;2.42;;;2.15;;
11488;SDS011;5801;50.804;12.638;2023-03-21T03:58:33;8.70;;;2.67;;
11488;SDS011;5801;50.804;12.638;2023-03-21T04:00:59;4.50;;;2.25;;
11488;SDS011;5801;50.804;12.638;2023-03-21T04:03:25;8.30;;;3.20;;
11488;SDS011;5801;50.804;12.638;2023-03-21T04:05:51;5.32;;;2.70;;
11488;SDS011;5801;50.804;12.638;2023-03-21T04:08:18;4.93;;;2.38;;
11488;SDS011;5801;50.804;12.638;2023-03-21T04:10:43;6.30;;;3.47;;
11488;SDS011;5801;50.804;12.638;2023-03-21T04:13:09;4.13;;;2.38;;
11488;SDS011;5801;50.804;12.638;2023-03-21T04:15:35;7.55;;;2.83;;
11488;SDS011;5801;50.804;12.638;2023-03-21T04:18:02;5.25;;;2.38;;
11488;SDS011;5801;50.804;12.638;2023-03-21T04:20:28;4.25;;;2.47;;
11488;SDS011;5801;50.804;12.638;2023-03-21T04:22:54;3.33;;;2.38;;
11488;SDS011;5801;50.804;12.638;2023-03-21T04:25:20;8.77;;;2.78;;
11488;SDS011;5801;50.804;12.638;2023-03-21T04:27:46;5.95;;;2.22;;
11488;SDS011;5801;50.804;12.638;2023-03-21T04:30:13;2.88;;;2.13;;
11488;SDS011;5801;50.804;12.638;2023-03-21T04:32:39;3.60;;;2.25;;
11488;SDS011;5801;50.804;12.638;2023-03-21T04:35:08;6.85;;;2.95;;
11488;SDS011;5801;50.804;12.638;2023-03-21T04:37:35;7.93;;;3.10;;
11488;SDS011;5801;50.804;12.638;2023-03-21T04:40:03;4.00;;;2.72;;
11488;SDS011;5801;50.804;12.638;2023-03-21T04:42:30;5.78;;;3.13;;
11488;SDS011;5801;50.804;12.638;2023-03-21T04:44:56;6.45;;;3.60;;
11488;SDS011;5801;50.804;12.638;2023-03-21T04:47:22;5.43;;;3.30;;
11488;SDS011;5801;50.804;12.638;2023-03-21T04:49:47;4.90;;;3.90;;
11488;SDS011;5801;50.804;12.638;2023-03-21T04:52:14;4.75;;;3.13;;
11488;SDS011;5801;50.804;12.638;2023-03-21T04:54:40;4.97;;;3.30;;
11488;SDS011;5801;50.804;12.638;2023-03-21T04:57:06;4.85;;;3.03;;
11488;SDS011;5801;50.804;12.638;2023-03-21T04:59:32;4.22;;;2.63;;
11488;SDS011;5801;50.804;12.638;2023-03-21T05:01:57;6.68;;;2.97;;
11488;SDS011;5801;50.804;12.638;2023-03-21T05:04:23;5.65;;;2.85;;
11488;SDS011;5801;50.804;12.638;2023-03-21T05:06:50;3.60;;;2.63;;
11488;SDS011;5801;50.804;12.638;2023-03-21T05:09:16;9.80;;;3.25;;
11488;SDS011;5801;50.804;12.638;2023-03-21T05:11:42;3.97;;;2.50;;
11488;SDS011;5801;50.804;12.638;2023-03-21T05:14:09;4.80;;;3.00;;
11488;SDS011;5801;50.804;12.638;2023-03-21T05:16:38;8.18;;;2.75;;
11488;SDS011;5801;50.804;12.638;2023-03-21T05:19:09;5.18;;;3.15;;
11488;SDS011;5801;50.804;12.638;2023-03-21T05:21:37;5.10;;;3.22;;
11488;SDS011;5801;50.804;12.638;2023-03-21T05:24:07;8.60;;;2.67;;
11488;SDS011;5801;50.804;12.638;2023-03-21T05:26:38;3.55;;;2.67;;
11488;SDS011;5801;50.804;12.638;2023-03-21T05:29:04;6.93;;;2.83;;
11488;SDS011;5801;50.804;12.638;2023-03-21T05:31:30;4.82;;;2.75;;
11488;SDS011;5801;50.804;12.638;2023-03-21T05:33:56;3.65;;;2.53;;
11488;SDS011;5801;50.804;12.638;2023-03-21T05:36:22;6.40;;;2.40;;
11488;SDS011;5801;50.804;12.638;2023-03-21T05:38:48;4.60;;;2.20;;
11488;SDS011;5801;50.804;12.638;2023-03-21T05:41:14;5.75;;;3.22;;
11488;SDS011;5801;50.804;12.638;2023-03-21T05:43:40;3.67;;;2.70;;
11488;SDS011;5801;50.804;12.638;2023-03-21T05:46:06;7.82;;;5.05;;
11488;SDS011;5801;50.804;12.638;2023-03-21T05:48:32;6.13;;;3.83;;
11488;SDS011;5801;50.804;12.638;2023-03-21T05:50:58;7.00;;;3.22;;
11488;SDS011;5801;50.804;12.638;2023-03-21T05:53:24;10.68;;;3.58;;
11488;SDS011;5801;50.804;12.638;2023-03-21T05:55:50;5.70;;;3.35;;
11488;SDS011;5801;50.804;12.638;2023-03-21T05:58:16;5.38;;;3.13;;
11488;SDS011;5801;50.804;12.638;2023-03-21T06:00:41;4.50;;;3.03;;
11488;SDS011;5801;50.804;12.638;2023-03-21T06:03:07;8.70;;;2.90;;
11488;SDS011;5801;50.804;12.638;2023-03-21T06:05:33;8.57;;;5.05;;
11488;SDS011;5801;50.804;12.638;2023-03-21T06:07:59;8.52;;;4.53;;
11488;SDS011;5801;50.804;12.638;2023-03-21T06:10:25;14.98;;;4.80;;
11488;SDS011;5801;50.804;12.638;2023-03-21T06:12:50;9.32;;;3.45;;
11488;SDS011;5801;50.804;12.638;2023-03-21T06:15:16;7.35;;;4.15;;
11488;SDS011;5801;50.804;12.638;2023-03-21T06:17:42;5.03;;;3.28;;
11488;SDS011;5801;50.804;12.638;2023-03-21T06:20:08;7.10;;;3.80;;
11488;SDS011;5801;50.804;12.638;2023-03-21T06:22:34;5.20;;;2.95;;
11488;SDS011;5801;50.804;12.638;2023-03-21T06:25:01;9.30;;;3.67;;
11488;SDS011;5801;50.804;12.638;2023-03-21T06:27:27;5.25;;;2.88;;
11488;SDS011;5801;50.804;12.638;2023-03-21T06:29:53;9.27;;;3.50;;
11488;SDS011;5801;50.804;12.638;2023-03-21T06:32:19;7.20;;;3.60;;
11488;SDS011;5801;50.804;12.638;2023-03-21T06:34:45;7.40;;;2.78;;
11488;SDS011;5801;50.804;12.638;2023-03-21T06:37:11;5.53;;;3.03;;
11488;SDS011;5801;50.804;12.638;2023-03-21T06:39:36;4.30;;;3.28;;
11488;SDS011;5801;50.804;12.638;2023-03-21T06:42:02;6.68;;;3.72;;
11488;SDS011;5801;50.804;12.638;2023-03-21T06:44:28;4.45;;;3.25;;
11488;SDS011;5801;50.804;12.638;2023-03-21T06:46:54;6.72;;;3.50;;
11488;SDS011;5801;50.804;12.638;2023-03-21T06:49:20;7.07;;;3.53;;
11488;SDS011;5801;50.804;12.638;2023-03-21T06:51:46;6.97;;;2.75;;
11488;SDS011;5801;50.804;12.638;2023-03-21T06:54:11;5.55;;;3.28;;
11488;SDS011;5801;50.804;12.638;2023-03-21T06:56:38;7.97;;;3.72;;
11488;SDS011;5801;50.804;12.638;2023-03-21T06:59:05;7.88;;;3.28;;
11488;SDS011;5801;50.804;12.638;2023-03-21T07:01:32;3.03;;;2.70;;
11488;SDS011;5801;50.804;12.638;2023-03-21T07:03:57;7.07;;;3.60;;
11488;SDS011;5801;50.804;12.638;2023-03-21T07:06:24;6.15;;;3.33;;
11488;SDS011;5801;50.804;12.638;2023-03-21T07:08:50;12.55;;;3.40;;
11488;SDS011;5801;50.804;12.638;2023-03-21T07:11:16;5.28;;;2.78;;
11488;SDS011;5801;50.804;12.638;2023-03-21T07:13:43;5.45;;;3.20;;
11488;SDS011;5801;50.804;12.638;2023-03-21T07:16:09;3.65;;;2.90;;
11488;SDS011;5801;50.804;12.638;2023-03-21T07:18:35;9.98;;;3.08;;
11488;SDS011;5801;50.804;12.638;2023-03-21T07:21:02;8.10;;;4.00;;
11488;SDS011;5801;50.804;12.638;2023-03-21T07:23:28;6.28;;;4.03;;
11488;SDS011;5801;50.804;12.638;2023-03-21T07:25:54;9.48;;;4.03;;
11488;SDS011;5801;50.804;12.638;2023-03-21T07:28:20;5.13;;;3.33;;
11488;SDS011;5801;50.804;12.638;2023-03-21T07:30:51;7.13;;;3.50;;
11488;SDS011;5801;50.804;12.638;2023-03-21T07:33:21;8.63;;;3.97;;
11488;SDS011;5801;50.804;12.638;2023-03-21T07:35:48;6.55;;;2.85;;
11488;SDS011;5801;50.804;12.638;2023-03-21T07:38:14;5.50;;;2.90;;
11488;SDS011;5801;50.804;12.638;2023-03-21T07:40:41;5.80;;;3.42;;
11488;SDS011;5801;50.804;12.638;2023-03-21T07:43:07;5.40;;;3.25;;
11488;SDS011;5801;50.804;12.638;2023-03-21T07:45:33;6.15;;;3.08;;
11488;SDS011;5801;50.804;12.638;2023-03-21T07:47:59;9.07;;;4.47;;
11488;SDS011;5801;50.804;12.638;2023-03-21T07:50:25;6.32;;;3.10;;
11488;SDS011;5801;50.804;12.638;2023-03-21T07:52:51;6.22;;;3.47;;
11488;SDS011;5801;50.804;12.638;2023-03-21T07:55:16;11.23;;;3.65;;
11488;SDS011;5801;50.804;12.638;2023-03-21T07:57:42;7.40;;;3.42;;
11488;SDS011;5801;50.804;12.638;2023-03-21T08:00:08;5.32;;;3.13;;
11488;SDS011;5801;50.804;12.638;2023-03-21T08:02:34;8.07;;;3.22;;
11488;SDS011;5801;50.804;12.638;2023-03-21T08:05:01;6.70;;;4.32;;
11488;SDS011;5801;50.804;12.638;2023-03-21T08:07:27;7.80;;;3.00;;
11488;SDS011;5801;50.804;12.638;2023-03-21T08:09:53;11.75;;;3.25;;
11488;SDS011;5801;50.804;12.638;2023-03-21T08:12:19;4.85;;;3.53;;
11488;SDS011;5801;50.804;12.638;2023-03-21T08:14:44;9.00;;;4.03;;
11488;SDS011;5801;50.804;12.638;2023-03-21T08:17:10;4.90;;;3.38;;
11488;SDS011;5801;50.804;12.638;2023-03-21T08:19:36;8.18;;;3.83;;
11488;SDS011;5801;50.804;12.638;2023-03-21T08:22:02;5.47;;;3.15;;
11488;SDS011;5801;50.804;12.638;2023-03-21T08:24:29;3.40;;;2.83;;
11488;SDS011;5801;50.804;12.638;2023-03-21T08:26:55;4.97;;;2.83;;
11488;SDS011;5801;50.804;12.638;2023-03-21T08:29:21;8.30;;;3.83;;
11488;SDS011;5801;50.804;12.638;2023-03-21T08:31:48;3.90;;;2.75;;
11488;SDS011;5801;50.804;12.638;2023-03-21T08:34:14;5.30;;;2.58;;
11488;SDS011;5801;50.804;12.638;2023-03-21T08:36:41;6.00;;;3.00;;
11488;SDS011;5801;50.804;12.638;2023-03-21T08:39:08;6.85;;;3.00;;
11488;SDS011;5801;50.804;12.638;2023-03-21T08:41:35;3.75;;;2.60;;
11488;SDS011;5801;50.804;12.638;2023-03-21T08:44:02;4.38;;;2.63;;
11488;SDS011;5801;50.804;12.638;2023-03-21T08:46:28;4.55;;;2.53;;
11488;SDS011;5801;50.804;12.638;2023-03-21T08:48:54;11.18;;;2.55;;
11488;SDS011;5801;50.804;12.638;2023-03-21T08:51:20;5.22;;;2.80;;
11488;SDS011;5801;50.804;12.638;2023-03-21T08:53:46;7.05;;;2.15;;
11488;SDS011;5801;50.804;12.638;2023-03-21T08:56:13;7.57;;;2.38;;
11488;SDS011;5801;50.804;12.638;2023-03-21T08:58:39;4.28;;;2.40;;
11488;SDS011;5801;50.804;12.638;2023-03-21T09:01:05;3.15;;;2.13;;
11488;SDS011;5801;50.804;12.638;2023-03-21T09:03:35;2.92;;;2.47;;
11488;SDS011;5801;50.804;12.638;2023-03-21T09:06:00;4.33;;;2.63;;
11488;SDS011;5801;50.804;12.638;2023-03-21T09:08:26;3.95;;;1.95;;
11488;SDS011;5801;50.804;12.638;2023-03-21T09:10:52;2.45;;;1.95;;
11488;SDS011;5801;50.804;12.638;2023-03-21T09:13:18;3.97;;;2.17;;
11488;SDS011;5801;50.804;12.638;2023-03-21T09:15:45;7.72;;;2.25;;
11488;SDS011;5801;50.804;12.638;2023-03-21T09:18:10;4.22;;;2.08;;
11488;SDS011;5801;50.804;12.638;2023-03-21T09:20:46;4.13;;;2.50;;
11488;SDS011;5801;50.804;12.638;2023-03-21T09:23:12;4.55;;;2.50;;
11488;SDS011;5801;50.804;12.638;2023-03-21T09:25:39;3.30;;;1.80;;
11488;SDS011;5801;50.804;12.638;2023-03-21T09:28:05;3.65;;;1.92;;
11488;SDS011;5801;50.804;12.638;2023-03-21T09:30:31;2.85;;;2.25;;
11488;SDS011;5801;50.804;12.638;2023-03-21T09:32:59;3.88;;;1.60;;
11488;SDS011;5801;50.804;12.638;2023-03-21T09:35:25;3.70;;;1.70;;
11488;SDS011;5801;50.804;12.638;2023-03-21T09:37:52;3.13;;;1.50;;
11488;SDS011;5801;50.804;12.638;2023-03-21T09:40:20;2.88;;;1.83;;
11488;SDS011;5801;50.804;12.638;2023-03-21T09:43:03;2.25;;;1.58;;
11488;SDS011;5801;50.804;12.638;2023-03-21T09:45:45;4.30;;;1.60;;
11488;SDS011;5801;50.804;12.638;2023-03-21T09:48:31;2.17;;;1.40;;
11488;SDS011;5801;50.804;12.638;2023-03-21T09:51:03;2.22;;;1.55;;
11488;SDS011;5801;50.804;12.638;2023-03-21T09:53:34;3.13;;;1.48;;
11488;SDS011;5801;50.804;12.638;2023-03-21T09:56:04;2.38;;;1.50;;
11488;SDS011;5801;50.804;12.638;2023-03-21T09:59:04;1.65;;;1.40;;
11488;SDS011;5801;50.804;12.638;2023-03-21T10:01:25;1.73;;;1.52;;
11488;SDS011;5801;50.804;12.638;2023-03-21T10:03:54;5.57;;;1.13;;
11488;SDS011;5801;50.804;12.638;2023-03-21T10:06:21;1.02;;;0.93;;
11488;SDS011;5801;50.804;12.638;2023-03-21T10:08:52;3.53;;;1.50;;
11488;SDS011;5801;50.804;12.638;2023-03-21T10:11:45;2.25;;;1.40;;
11488;SDS011;5801;50.804;12.638;2023-03-21T10:14:18;1.75;;;1.60;;
11488;SDS011;5801;50.804;12.638;2023-03-21T10:16:46;1.23;;;1.13;;
11488;SDS011;5801;50.804;12.638;2023-03-21T10:19:16;1.77;;;1.30;;
11488;SDS011;5801;50.804;12.638;2023-03-21T10:21:44;2.17;;;1.65;;
11488;SDS011;5801;50.804;12.638;2023-03-21T10:24:13;2.88;;;1.60;;
11488;SDS011;5801;50.804;12.638;2023-03-21T10:26:46;1.85;;;1.40;;
11488;SDS011;5801;50.804;12.638;2023-03-21T10:29:13;3.08;;;1.10;;
11488;SDS011;5801;50.804;12.638;2023-03-21T10:31:42;3.20;;;1.30;;
11488;SDS011;5801;50.804;12.638;2023-03-21T10:34:24;1.48;;;1.20;;
11488;SDS011;5801;50.804;12.638;2023-03-21T10:36:55;5.38;;;2.97;;
11488;SDS011;5801;50.804;12.638;2023-03-21T10:42:01;2.38;;;1.55;;
11488;SDS011;5801;50.804;12.638;2023-03-21T10:44:27;2.75;;;1.83;;
11488;SDS011;5801;50.804;12.638;2023-03-21T10:47:07;2.30;;;1.67;;
11488;SDS011;5801;50.804;12.638;2023-03-21T10:49:37;2.75;;;1.63;;
11488;SDS011;5801;50.804;12.638;2023-03-21T10:52:04;3.17;;;1.70;;
11488;SDS011;5801;50.804;12.638;2023-03-21T10:54:32;3.17;;;1.70;;
11488;SDS011;5801;50.804;12.638;2023-03-21T10:57:02;6.22;;;2.75;;
11488;SDS011;5801;50.804;12.638;2023-03-21T10:59:35;3.05;;;1.90;;
11488;SDS011;5801;50.804;12.638;2023-03-21T11:02:06;6.18;;;2.13;;
11488;SDS011;5801;50.804;12.638;2023-03-21T11:04:43;4.25;;;1.50;;
11488;SDS011;5801;50.804;12.638;2023-03-21T11:07:11;2.25;;;1.67;;
11488;SDS011;5801;50.804;12.638;2023-03-21T11:09:58;2.80;;;1.60;;
11488;SDS011;5801;50.804;12.638;2023-03-21T11:12:29;2.58;;;1.30;;
11488;SDS011;5801;50.804;12.638;2023-03-21T11:15:24;2.88;;;1.67;;
11488;SDS011;5801;50.804;12.638;2023-03-21T11:18:01;2.78;;;1.58;;
11488;SDS011;5801;50.804;12.638;2023-03-21T11:20:41;2.90;;;1.88;;
11488;SDS011;5801;50.804;12.638;2023-03-21T11:23:12;3.97;;;1.50;;
11488;SDS011;5801;50.804;12.638;2023-03-21T11:25:39;3.83;;;2.17;;
11488;SDS011;5801;50.804;12.638;2023-03-21T11:28:40;4.15;;;1.90;;
11488;SDS011;5801;50.804;12.638;2023-03-21T11:31:02;8.02;;;2.30;;
11488;SDS011;5801;50.804;12.638;2023-03-21T11:33:34;2.47;;;1.70;;
11488;SDS011;5801;50.804;12.638;2023-03-21T11:38:33;2.60;;;1.60;;
11488;SDS011;5801;50.804;12.638;2023-03-21T11:41:02;1.60;;;1.45;;
11488;SDS011;5801;50.804;12.638;2023-03-21T11:43:30;2.20;;;1.88;;
11488;SDS011;5801;50.804;12.638;2023-03-21T11:46:01;6.45;;;2.10;;
11488;SDS011;5801;50.804;12.638;2023-03-21T11:48:37;3.58;;;2.28;;
11488;SDS011;5801;50.804;12.638;2023-03-21T11:51:13;2.83;;;1.75;;
11488;SDS011;5801;50.804;12.638;2023-03-21T11:53:51;4.25;;;1.48;;
11488;SDS011;5801;50.804;12.638;2023-03-21T11:56:27;5.30;;;1.92;;
11488;SDS011;5801;50.804;12.638;2023-03-21T11:59:00;5.70;;;1.92;;
11488;SDS011;5801;50.804;12.638;2023-03-21T12:18:06;2.88;;;1.80;;
11488;SDS011;5801;50.804;12.638;2023-03-21T12:21:05;2.47;;;1.60;;
11488;SDS011;5801;50.804;12.638;2023-03-21T12:23:59;5.55;;;1.73;;
11488;SDS011;5801;50.804;12.638;2023-03-21T12:26:55;4.63;;;1.58;;
11488;SDS011;5801;50.804;12.638;2023-03-21T12:29:48;1.38;;;1.27;;
11488;SDS011;5801;50.804;12.638;2023-03-21T12:32:48;2.17;;;1.50;;
11488;SDS011;5801;50.804;12.638;2023-03-21T12:35:49;1.73;;;1.10;;
11488;SDS011;5801;50.804;12.638;2023-03-21T12:38:32;3.22;;;1.30;;
11488;SDS011;5801;50.804;12.638;2023-03-21T12:41:11;1.55;;;1.23;;
11488;SDS011;5801;50.804;12.638;2023-03-21T12:43:52;4.90;;;1.75;;
11488;SDS011;5801;50.804;12.638;2023-03-21T12:49:25;5.57;;;2.05;;
11488;SDS011;5801;50.804;12.638;2023-03-21T12:51:54;3.10;;;1.90;;
11488;SDS011;5801;50.804;12.638;2023-03-21T12:57:16;4.28;;;1.80;;
11488;SDS011;5801;50.804;12.638;2023-03-21T13:02:42;2.75;;;1.55;;
11488;SDS011;5801;50.804;12.638;2023-03-21T13:08:13;3.97;;;1.70;;
11488;SDS011;5801;50.804;12.638;2023-03-21T13:10:59;1.73;;;1.10;;
11488;SDS011;5801;50.804;12.638;2023-03-21T13:16:18;2.83;;;1.52;;
11488;SDS011;5801;50.804;12.638;2023-03-21T13:19:10;2.47;;;1.27;;
11488;SDS011;5801;50.804;12.638;2023-03-21T13:22:31;2.53;;;1.63;;
11488;SDS011;5801;50.804;12.638;2023-03-21T13:25:04;4.60;;;1.50;;
11488;SDS011;5801;50.804;12.638;2023-03-21T13:27:32;2.63;;;1.30;;
11488;SDS011;5801;50.804;12.638;2023-03-21T13:30:01;1.52;;;1.30;;
11488;SDS011;5801;50.804;12.638;2023-03-21T13:32:45;2.88;;;1.60;;
11488;SDS011;5801;50.804;12.638;2023-03-21T13:35:20;1.98;;;1.45;;
11488;SDS011;5801;50.804;12.638;2023-03-21T13:37:58;1.42;;;1.17;;
11488;SDS011;5801;50.804;12.638;2023-03-21T13:40:36;3.55;;;1.60;;
11488;SDS011;5801;50.804;12.638;2023-03-21T13:43:04;2.33;;;1.02;;
11488;SDS011;5801;50.804;12.638;2023-03-21T13:51:50;3.38;;;1.52;;
11488;SDS011;5801;50.804;12.638;2023-03-21T13:54:18;5.15;;;1.38;;
11488;SDS011;5801;50.804;12.638;2023-03-21T14:01:59;2.72;;;1.73;;
11488;SDS011;5801;50.804;12.638;2023-03-21T14:04:43;4.53;;;1.80;;
11488;SDS011;5801;50.804;12.638;2023-03-21T14:07:13;1.45;;;1.08;;
11488;SDS011;5801;50.804;12.638;2023-03-21T14:09:46;1.92;;;1.40;;
11488;SDS011;5801;50.804;12.638;2023-03-21T14:12:16;1.20;;;1.10;;
11488;SDS011;5801;50.804;12.638;2023-03-21T14:14:48;2.95;;;1.75;;
11488;SDS011;5801;50.804;12.638;2023-03-21T14:17:27;2.47;;;1.60;;
11488;SDS011;5801;50.804;12.638;2023-03-21T14:19:58;2.85;;;1.65;;
11488;SDS011;5801;50.804;12.638;2023-03-21T14:22:37;2.13;;;1.35;;
11488;SDS011;5801;50.804;12.638;2023-03-21T14:25:03;5.07;;;2.05;;
11488;SDS011;5801;50.804;12.638;2023-03-21T14:27:32;2.45;;;1.40;;
11488;SDS011;5801;50.804;12.638;2023-03-21T14:29:59;3.40;;;1.80;;
11488;SDS011;5801;50.804;12.638;2023-03-21T14:32:26;2.28;;;1.63;;
11488;SDS011;5801;50.804;12.638;2023-03-21T14:34:54;4.43;;;1.77;;
11488;SDS011;5801;50.804;12.638;2023-03-21T14:39:59;3.45;;;1.40;;
11488;SDS011;5801;50.804;12.638;2023-03-21T14:42:26;2.65;;;1.80;;
11488;SDS011;5801;50.804;12.638;2023-03-21T14:44:57;8.70;;;1.70;;
11488;SDS011;5801;50.804;12.638;2023-03-21T14:47:25;5.50;;;1.75;;
11488;SDS011;5801;50.804;12.638;2023-03-21T14:49:52;2.25;;;1.65;;
11488;SDS011;5801;50.804;12.638;2023-03-21T14:52:20;3.95;;;1.55;;
11488;SDS011;5801;50.804;12.638;2023-03-21T14:54:48;2.15;;;1.33;;
11488;SDS011;5801;50.804;12.638;2023-03-21T14:57:19;4.25;;;1.52;;
11488;SDS011;5801;50.804;12.638;2023-03-21T14:59:47;5.22;;;1.50;;
11488;SDS011;5801;50.804;12.638;2023-03-21T15:02:19;2.88;;;1.48;;
11488;SDS011;5801;50.804;12.638;2023-03-21T15:04:50;2.42;;;1.42;;
11488;SDS011;5801;50.804;12.638;2023-03-21T15:07:31;4.90;;;1.67;;
11488;SDS011;5801;50.804;12.638;2023-03-21T15:09:59;2.05;;;1.45;;
11488;SDS011;5801;50.804;12.638;2023-03-21T15:12:28;1.63;;;1.30;;
11488;SDS011;5801;50.804;12.638;2023-03-21T15:14:54;2.45;;;1.55;;
11488;SDS011;5801;50.804;12.638;2023-03-21T15:17:20;2.88;;;1.85;;
11488;SDS011;5801;50.804;12.638;2023-03-21T15:19:47;1.42;;;1.27;;
11488;SDS011;5801;50.804;12.638;2023-03-21T15:22:15;1.85;;;1.15;;
11488;SDS011;5801;50.804;12.638;2023-03-21T15:25:00;4.47;;;1.30;;
11488;SDS011;5801;50.804;12.638;2023-03-21T15:27:31;2.28;;;1.38;;
11488;SDS011;5801;50.804;12.638;2023-03-21T15:30:00;2.55;;;1.55;;
11488;SDS011;5801;50.804;12.638;2023-03-21T15:32:26;2.00;;;1.45;;
11488;SDS011;5801;50.804;12.638;2023-03-21T15:34:52;2.70;;;1.45;;
11488;SDS011;5801;50.804;12.638;2023-03-21T15:37:21;2.53;;;1.42;;
11488;SDS011;5801;50.804;12.638;2023-03-21T15:39:49;1.88;;;1.10;;
11488;SDS011;5801;50.804;12.638;2023-03-21T15:42:22;1.55;;;0.93;;
11488;SDS011;5801;50.804;12.638;2023-03-21T15:45:00;1.10;;;1.00;;
11488;SDS011;5801;50.804;12.638;2023-03-21T15:47:49;3.80;;;1.42;;
11488;SDS011;5801;50.804;12.638;2023-03-21T15:52:49;1.00;;;0.93;;
11488;SDS011;5801;50.804;12.638;2023-03-21T15:55:20;1.35;;;1.05;;
11488;SDS011;5801;50.804;12.638;2023-03-21T15:57:50;1.45;;;1.30;;
11488;SDS011;5801;50.804;12.638;2023-03-21T16:00:20;2.05;;;1.40;;
11488;SDS011;5801;50.804;12.638;2023-03-21T16:02:51;2.72;;;1.17;;
11488;SDS011;5801;50.804;12.638;2023-03-21T16:05:29;1.40;;;1.30;;
11488;SDS011;5801;50.804;12.638;2023-03-21T16:08:17;2.95;;;1.40;;
11488;SDS011;5801;50.804;12.638;2023-03-21T16:10:50;1.98;;;1.50;;
11488;SDS011;5801;50.804;12.638;2023-03-21T16:13:16;1.85;;;1.40;;
11488;SDS011;5801;50.804;12.638;2023-03-21T16:15:41;1.85;;;1.52;;
11488;SDS011;5801;50.804;12.638;2023-03-21T16:18:07;1.63;;;1.27;;
11488;SDS011;5801;50.804;12.638;2023-03-21T16:20:34;4.15;;;1.20;;
11488;SDS011;5801;50.804;12.638;2023-03-21T16:23:04;2.40;;;1.42;;